createdAt,value
2017-10-21T00:01:51.399Z,15.00
2017-10-21T00:04:19.515Z,15.00
2017-10-21T00:06:47.684Z,15.00
2017-10-21T00:09:15.818Z,15.00
2017-10-21T00:11:43.951Z,15.00
2017-10-21T00:14:12.080Z,14.90
2017-10-21T00:16:41.014Z,15.00
2017-10-21T00:19:09.134Z,14.90
2017-10-21T00:21:38.056Z,15.00
2017-10-21T00:24:06.192Z,15.00
2017-10-21T00:26:35.094Z,15.00
2017-10-21T00:29:03.993Z,15.00
2017-10-21T00:31:32.938Z,15.10
2017-10-21T00:34:01.057Z,15.00
2017-10-21T00:36:29.971Z,15.10
2017-10-21T00:38:58.109Z,15.10
2017-10-21T00:41:27.014Z,15.10
2017-10-21T00:43:55.904Z,15.10
2017-10-21T00:46:24.119Z,15.10
2017-10-21T00:48:52.254Z,15.00
2017-10-21T00:51:21.141Z,14.90
2017-10-21T00:53:50.040Z,14.90
2017-10-21T00:56:18.173Z,14.90
2017-10-21T00:58:46.347Z,14.90
2017-10-21T01:01:14.493Z,14.90
2017-10-21T01:03:42.603Z,15.00
2017-10-21T01:06:11.647Z,15.00
2017-10-21T01:08:39.764Z,15.00
2017-10-21T01:11:07.903Z,15.00
2017-10-21T01:13:36.068Z,15.00
2017-10-21T01:16:04.209Z,15.00
2017-10-21T01:18:33.814Z,15.00
2017-10-21T01:21:02.002Z,15.00
2017-10-21T01:23:30.884Z,15.00
2017-10-21T01:25:59.021Z,15.00
2017-10-21T01:28:27.151Z,15.00
2017-10-21T01:30:55.335Z,15.00
2017-10-21T01:33:23.456Z,15.00
2017-10-21T01:35:52.348Z,15.00
2017-10-21T01:38:21.264Z,15.00
2017-10-21T01:40:49.397Z,15.00
2017-10-21T01:43:17.546Z,15.00
2017-10-21T01:45:45.669Z,15.00
2017-10-21T01:48:13.819Z,15.00
2017-10-21T01:50:42.751Z,15.00
2017-10-21T01:53:10.878Z,15.00
2017-10-21T01:55:39.790Z,15.00
2017-10-21T01:58:08.672Z,14.90
2017-10-21T02:00:37.695Z,14.90
2017-10-21T02:03:05.836Z,14.90
2017-10-21T02:05:35.029Z,15.00
2017-10-21T02:08:03.911Z,14.90
2017-10-21T02:10:32.816Z,14.90
2017-10-21T02:13:01.737Z,14.90
2017-10-21T02:15:29.857Z,14.90
2017-10-21T02:17:58.012Z,14.90
2017-10-21T02:20:26.948Z,14.80
2017-10-21T02:22:55.878Z,14.80
2017-10-21T02:25:24.035Z,14.80
2017-10-21T02:27:52.191Z,14.80
2017-10-21T02:30:20.338Z,14.70
2017-10-21T02:32:49.240Z,14.70
2017-10-21T02:35:18.155Z,14.60
2017-10-21T02:37:46.305Z,14.60
2017-10-21T02:40:15.256Z,14.60
2017-10-21T02:42:43.378Z,14.60
2017-10-21T02:45:11.535Z,14.60
2017-10-21T02:47:40.428Z,14.50
2017-10-21T02:50:08.571Z,14.50
2017-10-21T02:52:36.726Z,14.50
2017-10-21T02:55:05.680Z,14.50
2017-10-21T02:57:33.848Z,14.50
2017-10-21T03:00:01.994Z,14.50
2017-10-21T03:02:31.819Z,14.40
2017-10-21T03:05:00.723Z,14.40
2017-10-21T03:07:28.862Z,14.40
2017-10-21T03:09:57.003Z,14.40
2017-10-21T03:12:25.130Z,14.50
2017-10-21T03:14:54.050Z,14.40
2017-10-21T03:17:22.180Z,14.40
2017-10-21T03:19:51.072Z,14.40
2017-10-21T03:22:19.968Z,14.50
2017-10-21T03:24:48.890Z,14.50
2017-10-21T03:27:17.022Z,14.40
2017-10-21T03:29:45.927Z,14.50
2017-10-21T03:32:14.080Z,14.50
2017-10-21T03:34:43.021Z,14.50
2017-10-21T03:37:11.167Z,14.50
2017-10-21T03:39:40.059Z,14.50
2017-10-21T03:42:08.212Z,14.50
2017-10-21T03:44:36.346Z,14.50
2017-10-21T03:47:04.480Z,14.50
2017-10-21T03:49:32.632Z,14.50
2017-10-21T03:52:01.541Z,14.50
2017-10-21T03:54:30.458Z,14.50
2017-10-21T03:56:58.575Z,14.50
2017-10-21T03:59:26.720Z,14.60
2017-10-21T04:01:54.865Z,14.60
2017-10-21T04:04:23.204Z,14.60
2017-10-21T04:06:52.131Z,14.60
2017-10-21T04:09:20.254Z,14.60
2017-10-21T04:11:49.163Z,14.50
2017-10-21T04:14:18.076Z,14.40
2017-10-21T04:16:46.216Z,14.50
2017-10-21T04:19:14.344Z,14.30
2017-10-21T04:21:42.518Z,14.10
2017-10-21T04:24:10.697Z,14.10
2017-10-21T04:26:38.840Z,14.10
2017-10-21T04:29:06.980Z,14.00
2017-10-21T04:31:35.121Z,14.00
2017-10-21T04:34:03.251Z,14.00
2017-10-21T04:36:31.404Z,13.90
2017-10-21T04:39:00.307Z,13.80
2017-10-21T04:41:28.522Z,13.80
2017-10-21T04:43:56.705Z,13.70
2017-10-21T04:46:24.889Z,13.70
2017-10-21T04:48:53.772Z,13.70
2017-10-21T04:51:21.914Z,13.70
2017-10-21T04:53:50.032Z,13.70
2017-10-21T04:56:18.194Z,13.70
2017-10-21T04:58:46.337Z,13.70
2017-10-21T05:01:14.552Z,13.70
2017-10-21T05:03:42.657Z,13.70
2017-10-21T05:06:10.959Z,13.80
2017-10-21T05:08:39.086Z,13.70
2017-10-21T05:11:07.975Z,13.60
2017-10-21T05:13:36.892Z,13.60
2017-10-21T05:16:05.029Z,13.60
2017-10-21T05:18:33.213Z,13.60
2017-10-21T05:21:01.337Z,13.60
2017-10-21T05:23:29.477Z,13.60
2017-10-21T05:25:57.611Z,13.60
2017-10-21T05:28:25.808Z,13.60
2017-10-21T05:30:53.919Z,13.60
2017-10-21T05:33:22.043Z,13.60
2017-10-21T05:35:50.958Z,13.60
2017-10-21T05:38:19.099Z,13.60
2017-10-21T05:40:48.011Z,13.70
2017-10-21T05:43:16.144Z,13.70
2017-10-21T05:45:44.313Z,13.70
2017-10-21T05:48:12.453Z,13.70
2017-10-21T05:50:40.599Z,13.70
2017-10-21T05:53:09.499Z,13.80
2017-10-21T05:55:37.652Z,13.80
2017-10-21T05:58:05.791Z,13.80
2017-10-21T06:00:33.934Z,13.80
2017-10-21T06:03:02.068Z,13.80
2017-10-21T06:05:30.987Z,13.90
2017-10-21T06:07:59.147Z,13.80
2017-10-21T06:10:27.280Z,13.90
2017-10-21T06:12:55.429Z,13.90
2017-10-21T06:15:23.587Z,13.90
2017-10-21T06:17:51.739Z,13.90
2017-10-21T06:20:19.912Z,13.90
2017-10-21T06:22:48.056Z,14.00
2017-10-21T06:25:16.222Z,14.00
2017-10-21T06:27:44.387Z,14.00
2017-10-21T06:30:12.548Z,14.10
2017-10-21T06:32:40.695Z,14.10
2017-10-21T06:35:08.845Z,14.10
2017-10-21T06:37:37.750Z,14.20
2017-10-21T06:40:05.888Z,14.20
2017-10-21T06:42:34.813Z,14.20
2017-10-21T06:45:02.960Z,14.20
2017-10-21T06:47:31.368Z,14.30
2017-10-21T06:49:59.511Z,14.30
2017-10-21T06:52:28.426Z,14.40
2017-10-21T06:54:56.651Z,14.40
2017-10-21T06:57:24.801Z,14.40
2017-10-21T06:59:52.940Z,14.50
2017-10-21T07:02:21.088Z,14.50
2017-10-21T07:04:49.998Z,14.60
2017-10-21T07:07:18.144Z,14.60
2017-10-21T07:09:47.086Z,14.70
2017-10-21T07:12:15.224Z,14.60
2017-10-21T07:14:43.438Z,14.70
2017-10-21T07:17:11.562Z,14.70
2017-10-21T07:19:40.478Z,14.70
2017-10-21T07:22:08.630Z,14.70
2017-10-21T07:24:37.563Z,14.80
2017-10-21T07:27:05.724Z,14.80
2017-10-21T07:29:33.879Z,14.80
2017-10-21T07:32:02.798Z,14.90
2017-10-21T07:34:30.932Z,14.90
2017-10-21T07:36:59.845Z,14.90
2017-10-21T07:39:27.980Z,14.90
2017-10-21T07:41:56.904Z,15.00
2017-10-21T07:44:25.072Z,15.00
2017-10-21T07:46:53.211Z,15.00
2017-10-21T07:49:21.358Z,15.10
2017-10-21T07:51:49.480Z,15.10
2017-10-21T07:54:18.396Z,15.10
2017-10-21T07:56:46.529Z,15.10
2017-10-21T07:59:14.702Z,15.20
2017-10-21T08:01:43.609Z,15.20
2017-10-21T08:04:12.508Z,15.20
2017-10-21T08:06:40.796Z,15.20
2017-10-21T08:09:08.961Z,15.30
2017-10-21T08:11:37.102Z,15.20
2017-10-21T08:14:06.000Z,15.20
2017-10-21T08:16:34.919Z,15.20
2017-10-21T08:19:03.048Z,15.20
2017-10-21T08:21:31.195Z,15.20
2017-10-21T08:23:59.367Z,15.20
2017-10-21T08:26:27.504Z,15.30
2017-10-21T08:28:55.650Z,15.30
2017-10-21T08:31:23.807Z,15.30
2017-10-21T08:33:51.945Z,15.30
2017-10-21T08:36:20.097Z,15.30
2017-10-21T08:38:48.251Z,15.30
2017-10-21T08:41:17.247Z,15.40
2017-10-21T08:43:46.163Z,15.40
2017-10-21T08:46:14.309Z,15.40
2017-10-21T08:48:43.267Z,15.50
2017-10-21T08:51:11.422Z,15.50
2017-10-21T08:53:39.571Z,15.60
2017-10-21T08:56:07.715Z,15.60
2017-10-21T08:58:36.650Z,15.80
2017-10-21T09:01:04.819Z,15.80
2017-10-21T09:03:32.990Z,15.80
2017-10-21T09:06:01.149Z,15.90
2017-10-21T09:08:29.270Z,16.00
2017-10-21T09:10:57.448Z,16.10
2017-10-21T09:13:25.560Z,16.20
2017-10-21T09:15:53.701Z,16.40
2017-10-21T09:18:21.841Z,16.40
2017-10-21T09:20:49.972Z,16.50
2017-10-21T09:23:18.112Z,16.60
2017-10-21T09:25:47.017Z,16.60
2017-10-21T09:28:15.932Z,16.70
2017-10-21T09:30:44.080Z,16.60
2017-10-21T09:33:12.979Z,16.90
2017-10-21T09:35:41.686Z,16.80
2017-10-21T09:38:09.827Z,16.90
2017-10-21T09:40:38.719Z,17.00
2017-10-21T09:43:07.638Z,17.10
2017-10-21T09:45:35.762Z,17.00
2017-10-21T09:48:03.898Z,17.20
2017-10-21T09:50:32.035Z,17.30
2017-10-21T09:53:00.196Z,17.40
2017-10-21T09:55:29.129Z,17.50
2017-10-21T09:57:57.381Z,17.40
2017-10-21T10:00:25.532Z,17.50
2017-10-21T10:02:54.384Z,17.50
2017-10-21T10:05:22.516Z,17.50
2017-10-21T10:07:50.642Z,17.60
2017-10-21T10:10:19.116Z,17.60
2017-10-21T10:12:47.252Z,17.80
2017-10-21T10:15:15.395Z,18.10
2017-10-21T10:17:44.075Z,18.20
2017-10-21T10:20:12.981Z,18.70
2017-10-21T10:22:41.116Z,18.60
2017-10-21T10:25:09.272Z,18.80
2017-10-21T10:27:37.409Z,18.80
2017-10-21T10:30:05.541Z,18.80
2017-10-21T10:32:33.693Z,18.80
2017-10-21T10:35:01.817Z,18.70
2017-10-21T10:37:29.974Z,18.70
2017-10-21T10:39:58.877Z,18.70
2017-10-21T10:42:27.046Z,18.70
2017-10-21T10:44:55.977Z,18.70
2017-10-21T10:47:24.097Z,18.70
2017-10-21T10:49:53.040Z,18.70
2017-10-21T10:52:21.234Z,18.70
2017-10-21T10:54:49.367Z,18.70
2017-10-21T10:57:17.646Z,18.60
2017-10-21T10:59:45.776Z,18.50
2017-10-21T11:02:14.698Z,18.60
2017-10-21T11:04:42.824Z,18.60
2017-10-21T11:07:10.986Z,18.80
2017-10-21T11:09:39.109Z,19.10
2017-10-21T11:12:07.254Z,19.50
2017-10-21T11:14:35.448Z,19.80
2017-10-21T11:17:03.732Z,20.20
2017-10-21T11:19:31.855Z,20.40
2017-10-21T11:22:00.019Z,20.60
2017-10-21T11:24:28.903Z,21.20
2017-10-21T11:26:57.044Z,21.20
2017-10-21T11:29:25.211Z,21.40
2017-10-21T11:31:53.373Z,21.90
2017-10-21T11:34:21.645Z,22.10
2017-10-21T11:36:50.529Z,22.90
2017-10-21T11:39:19.430Z,22.60
2017-10-21T11:41:48.386Z,22.50
2017-10-21T11:44:16.492Z,22.50
2017-10-21T11:46:44.618Z,22.30
2017-10-21T11:49:12.783Z,22.20
2017-10-21T11:51:43.148Z,22.00
2017-10-21T11:54:11.673Z,22.00
2017-10-21T11:56:39.843Z,21.70
2017-10-21T11:59:07.974Z,21.70
2017-10-21T12:01:36.113Z,21.50
2017-10-21T12:04:04.248Z,21.60
2017-10-21T12:06:32.395Z,21.60
2017-10-21T12:09:00.548Z,21.60
2017-10-21T12:11:28.685Z,21.70
2017-10-21T12:13:56.946Z,21.70
2017-10-21T12:16:25.397Z,21.80
2017-10-21T12:18:54.302Z,21.80
2017-10-21T12:21:23.276Z,21.40
2017-10-21T12:23:51.439Z,21.40
2017-10-21T12:26:19.561Z,21.20
2017-10-21T12:28:47.695Z,21.00
2017-10-21T12:31:15.891Z,20.90
2017-10-21T12:33:44.029Z,20.80
2017-10-21T12:36:12.212Z,20.60
2017-10-21T12:38:41.120Z,20.70
2017-10-21T12:41:09.261Z,20.60
2017-10-21T12:43:37.377Z,20.70
2017-10-21T12:46:05.523Z,20.70
2017-10-21T12:48:34.429Z,20.70
2017-10-21T12:51:02.583Z,20.60
2017-10-21T12:53:31.482Z,20.80
2017-10-21T12:56:00.387Z,20.70
2017-10-21T12:58:28.579Z,20.70
2017-10-21T13:00:56.708Z,20.60
2017-10-21T13:03:25.591Z,20.90
2017-10-21T13:05:54.523Z,20.90
2017-10-21T13:08:22.696Z,20.80
2017-10-21T13:10:50.817Z,20.90
2017-10-21T13:13:18.947Z,21.10
2017-10-21T13:15:47.112Z,21.30
2017-10-21T13:18:15.241Z,21.10
2017-10-21T13:20:43.377Z,20.90
2017-10-21T13:23:11.526Z,20.80
2017-10-21T13:25:39.637Z,20.80
2017-10-21T13:28:09.289Z,20.50
2017-10-21T13:30:37.479Z,20.50
2017-10-21T13:33:06.372Z,20.60
2017-10-21T13:35:34.524Z,20.60
2017-10-21T13:38:02.841Z,20.50
2017-10-21T13:40:30.988Z,20.50
2017-10-21T13:42:59.127Z,20.30
2017-10-21T13:45:28.079Z,20.20
2017-10-21T13:47:56.202Z,20.10
2017-10-21T13:50:25.106Z,20.20
2017-10-21T13:52:53.229Z,20.20
2017-10-21T13:55:21.348Z,20.20
2017-10-21T13:57:49.491Z,20.10
2017-10-21T14:00:17.621Z,20.00
2017-10-21T14:02:45.752Z,20.10
2017-10-21T14:05:14.653Z,20.10
2017-10-21T14:07:43.542Z,20.20
2017-10-21T14:10:11.709Z,20.10
2017-10-21T14:12:40.604Z,20.10
2017-10-21T14:15:08.791Z,20.00
2017-10-21T14:17:37.189Z,20.10
2017-10-21T14:22:39.882Z,20.10
2017-10-21T14:25:08.024Z,20.10
2017-10-21T14:27:36.948Z,20.00
2017-10-21T14:30:05.093Z,20.00
2017-10-21T14:32:33.256Z,19.90
2017-10-21T14:35:02.199Z,19.90
2017-10-21T14:37:30.334Z,19.90
2017-10-21T14:39:58.511Z,19.90
2017-10-21T14:42:26.628Z,19.90
2017-10-21T14:44:55.032Z,19.90
2017-10-21T14:47:24.188Z,19.90
2017-10-21T14:49:52.313Z,19.90
2017-10-21T14:52:22.119Z,19.90
2017-10-21T14:54:51.016Z,19.90
2017-10-21T14:57:19.176Z,19.90
2017-10-21T14:59:48.091Z,19.90
2017-10-21T15:02:16.236Z,19.80
2017-10-21T15:04:45.164Z,19.70
2017-10-21T15:07:13.313Z,19.70
2017-10-21T15:09:42.194Z,19.70
2017-10-21T15:12:10.636Z,19.70
2017-10-21T15:14:38.747Z,19.70
2017-10-21T15:17:06.911Z,19.60
2017-10-21T15:19:35.049Z,19.50
2017-10-21T15:22:03.190Z,19.50
2017-10-21T15:24:31.325Z,19.40
2017-10-21T15:27:00.235Z,19.30
2017-10-21T15:29:28.383Z,19.30
2017-10-21T15:31:57.365Z,19.20
2017-10-21T15:34:25.491Z,19.20
2017-10-21T15:36:53.619Z,19.10
2017-10-21T15:39:21.742Z,19.00
2017-10-21T15:41:49.882Z,18.90
2017-10-21T15:44:18.784Z,18.80
2017-10-21T15:46:46.920Z,18.80
2017-10-21T15:49:15.822Z,18.60
2017-10-21T15:51:44.748Z,18.60
2017-10-21T15:54:12.858Z,18.60
2017-10-21T15:56:41.022Z,18.50
2017-10-21T15:59:09.186Z,18.40
2017-10-21T16:01:37.324Z,18.30
2017-10-21T16:04:06.230Z,18.00
2017-10-21T16:06:34.404Z,18.00
2017-10-21T16:09:02.527Z,17.90
2017-10-21T16:11:30.663Z,17.80
2017-10-21T16:13:58.780Z,17.80
2017-10-21T16:16:27.670Z,17.60
2017-10-21T16:18:56.568Z,17.50
2017-10-21T16:21:25.491Z,17.40
2017-10-21T16:23:53.646Z,17.40
2017-10-21T16:26:22.515Z,17.20
2017-10-21T16:28:51.431Z,17.10
2017-10-21T16:31:19.580Z,17.10
2017-10-21T16:33:48.459Z,16.90
2017-10-21T16:36:17.369Z,16.80
2017-10-21T16:38:46.283Z,16.70
2017-10-21T16:41:14.431Z,16.70
2017-10-21T16:43:43.323Z,16.60
2017-10-21T16:46:11.456Z,16.60
2017-10-21T16:48:39.601Z,16.50
2017-10-21T16:51:07.740Z,16.40
2017-10-21T16:53:36.657Z,16.30
2017-10-21T16:56:04.768Z,16.30
2017-10-21T16:58:32.932Z,16.30
2017-10-21T17:01:01.051Z,16.20
2017-10-21T17:03:29.226Z,16.10
2017-10-21T17:05:57.381Z,16.00
2017-10-21T17:08:25.563Z,16.00
2017-10-21T17:10:53.687Z,15.90
2017-10-21T17:13:22.165Z,15.80
2017-10-21T17:15:50.358Z,15.80
2017-10-21T17:18:18.480Z,15.70
2017-10-21T17:20:46.609Z,15.60
2017-10-21T17:23:14.739Z,15.60
2017-10-21T17:25:42.885Z,15.60
2017-10-21T17:28:11.024Z,15.60
2017-10-21T17:30:39.181Z,15.60
2017-10-21T17:33:07.321Z,15.50
2017-10-21T17:35:35.482Z,15.50
2017-10-21T17:38:03.630Z,15.50
2017-10-21T17:40:32.567Z,15.40
2017-10-21T17:43:00.732Z,15.40
2017-10-21T17:45:28.864Z,15.40
2017-10-21T17:47:58.003Z,15.30
2017-10-21T17:50:26.126Z,15.30
2017-10-21T17:52:54.278Z,15.30
2017-10-21T17:55:22.469Z,15.30
2017-10-21T17:57:50.623Z,15.20
2017-10-21T18:00:18.814Z,15.20
2017-10-21T18:02:46.977Z,15.20
2017-10-21T18:05:15.112Z,15.10
2017-10-21T18:07:43.250Z,15.10
2017-10-21T18:10:11.425Z,15.10
2017-10-21T18:12:39.566Z,15.10
2017-10-21T18:15:07.740Z,15.10
2017-10-21T18:17:35.928Z,15.00
2017-10-21T18:20:04.096Z,15.00
2017-10-21T18:22:32.388Z,15.00
2017-10-21T18:25:00.515Z,15.00
2017-10-21T18:27:29.476Z,14.90
2017-10-21T18:29:57.753Z,14.90
2017-10-21T18:32:26.636Z,14.80
2017-10-21T18:34:54.826Z,14.80
2017-10-21T18:37:22.970Z,14.70
2017-10-21T18:39:51.873Z,14.70
2017-10-21T18:42:20.001Z,14.60
2017-10-21T18:44:48.143Z,14.60
2017-10-21T18:47:16.309Z,14.60
2017-10-21T18:49:44.439Z,14.50
2017-10-21T18:52:13.350Z,14.50
2017-10-21T18:54:41.489Z,14.50
2017-10-21T18:57:10.399Z,14.50
2017-10-21T18:59:39.291Z,14.40
2017-10-21T19:02:07.470Z,14.40
2017-10-21T19:04:36.397Z,14.40
2017-10-21T19:07:04.560Z,14.40
2017-10-21T19:09:32.721Z,14.40
2017-10-21T19:12:00.915Z,14.30
2017-10-21T19:14:29.049Z,14.30
2017-10-21T19:16:57.191Z,14.30
2017-10-21T19:19:25.370Z,14.30
2017-10-21T19:21:53.523Z,14.30
2017-10-21T19:24:21.657Z,14.20
2017-10-21T19:26:49.812Z,14.20
2017-10-21T19:29:19.040Z,14.10
2017-10-21T19:31:47.188Z,14.00
2017-10-21T19:34:15.316Z,14.10
2017-10-21T19:36:43.507Z,14.00
2017-10-21T19:39:11.626Z,14.00
2017-10-21T19:41:39.776Z,14.00
2017-10-21T19:44:07.912Z,14.00
2017-10-21T19:46:36.083Z,14.00
2017-10-21T19:49:04.228Z,13.90
2017-10-21T19:51:32.408Z,13.90
2017-10-21T19:54:00.569Z,13.80
2017-10-21T19:56:28.704Z,13.80
2017-10-21T19:58:57.650Z,13.70
2017-10-21T20:01:25.781Z,13.70
2017-10-21T20:03:53.950Z,13.70
2017-10-21T20:06:22.966Z,13.60
2017-10-21T20:08:51.097Z,13.60
2017-10-21T20:11:20.066Z,13.50
2017-10-21T20:13:48.219Z,13.50
2017-10-21T20:16:16.347Z,13.50
2017-10-21T20:18:44.785Z,13.50
2017-10-21T20:21:12.962Z,13.40
2017-10-21T20:23:41.880Z,13.40
2017-10-21T20:26:10.033Z,13.40
2017-10-21T20:28:38.156Z,13.40
2017-10-21T20:31:06.317Z,13.40
2017-10-21T20:33:34.453Z,13.30
2017-10-21T20:36:02.602Z,13.30
2017-10-21T20:38:30.732Z,13.40
2017-10-21T20:40:58.899Z,13.30
2017-10-21T20:43:27.836Z,13.40
2017-10-21T20:45:55.961Z,13.40
2017-10-21T20:48:24.891Z,13.40
2017-10-21T20:50:53.050Z,13.40
2017-10-21T20:53:21.205Z,13.40
2017-10-21T20:55:49.344Z,13.40
2017-10-21T20:58:18.641Z,13.40
2017-10-21T21:00:46.940Z,13.30
2017-10-21T21:03:15.170Z,13.20
2017-10-21T21:05:43.427Z,13.30
2017-10-21T21:08:11.574Z,13.30
2017-10-21T21:10:39.710Z,13.30
2017-10-21T21:13:08.060Z,13.30
2017-10-21T21:15:36.217Z,13.30
2017-10-21T21:18:04.338Z,13.20
2017-10-21T21:20:33.263Z,13.20
2017-10-21T21:23:01.569Z,13.20
2017-10-21T21:25:29.708Z,13.10
2017-10-21T21:27:58.156Z,13.10
2017-10-21T21:30:26.285Z,13.10
2017-10-21T21:32:54.414Z,13.10
2017-10-21T21:35:23.375Z,13.10
2017-10-21T21:37:51.509Z,13.10
2017-10-21T21:40:19.908Z,13.00
2017-10-21T21:42:48.124Z,12.90
2017-10-21T21:45:17.024Z,12.90
2017-10-21T21:47:46.024Z,12.80
2017-10-21T21:50:14.154Z,12.70
2017-10-21T21:52:42.295Z,12.70
2017-10-21T21:55:10.415Z,12.70
2017-10-21T21:57:38.579Z,12.60
2017-10-21T22:00:06.709Z,12.60
2017-10-21T22:02:34.827Z,12.50
2017-10-21T22:05:02.992Z,12.50
2017-10-21T22:07:31.130Z,12.50
2017-10-21T22:09:59.403Z,12.40
2017-10-21T22:12:27.674Z,12.40
2017-10-21T22:14:55.811Z,12.40
2017-10-21T22:17:23.924Z,12.40
2017-10-21T22:19:52.072Z,12.40
2017-10-21T22:22:20.204Z,12.40
2017-10-21T22:24:48.323Z,12.30
2017-10-21T22:27:16.445Z,12.40
2017-10-21T22:29:44.579Z,12.30
2017-10-21T22:32:12.736Z,12.30
2017-10-21T22:34:40.870Z,12.30
2017-10-21T22:37:09.031Z,12.30
2017-10-21T22:39:37.176Z,12.30
2017-10-21T22:42:05.296Z,12.20
2017-10-21T22:44:33.430Z,12.20
2017-10-21T22:47:01.557Z,12.10
2017-10-21T22:49:30.459Z,12.10
2017-10-21T22:51:58.683Z,12.10
2017-10-21T22:54:26.801Z,12.10
2017-10-21T22:56:54.935Z,12.00
2017-10-21T22:59:23.128Z,11.90
2017-10-21T23:01:52.024Z,11.70
2017-10-21T23:04:20.907Z,11.70
2017-10-21T23:06:49.810Z,11.60
2017-10-21T23:09:18.747Z,11.50
2017-10-21T23:11:46.897Z,11.50
2017-10-21T23:14:15.031Z,11.50
2017-10-21T23:16:43.925Z,11.30
2017-10-21T23:19:12.822Z,11.20
2017-10-21T23:21:41.756Z,11.10
2017-10-21T23:24:09.919Z,11.00
2017-10-21T23:26:38.012Z,11.00
2017-10-21T23:29:06.132Z,10.80
2017-10-21T23:31:35.025Z,10.60
2017-10-21T23:34:03.919Z,10.60
2017-10-21T23:36:32.076Z,10.60
2017-10-21T23:39:00.218Z,10.60
2017-10-21T23:41:28.349Z,10.60
2017-10-21T23:43:56.500Z,10.60
2017-10-21T23:46:25.409Z,10.60
2017-10-21T23:48:53.539Z,10.50
2017-10-21T23:51:21.677Z,10.60
2017-10-21T23:53:49.897Z,10.60
2017-10-21T23:56:18.017Z,10.60
2017-10-21T23:58:46.131Z,10.60
